createdAt,value
2022-07-26T00:02:18.723Z,2.3
2022-07-26T00:20:47.237Z,2.6
2022-07-26T00:35:57.922Z,2.7
2022-07-26T00:51:10.510Z,2.3
2022-07-26T01:06:27.424Z,2
2022-07-26T01:21:38.508Z,1.7
2022-07-26T01:36:47.296Z,2.3
2022-07-26T01:51:56.406Z,2
2022-07-26T02:07:13.380Z,2.1
2022-07-26T02:22:22.249Z,2.2
2022-07-26T02:37:36.834Z,2
2022-07-26T02:52:53.458Z,1.9
2022-07-26T03:08:06.089Z,2.4
2022-07-26T03:23:15.414Z,2.4
2022-07-26T03:38:24.862Z,2.2
2022-07-26T03:53:38.845Z,2.7
2022-07-26T04:08:48.715Z,2.9
2022-07-26T04:23:58.145Z,2
2022-07-26T04:39:07.698Z,3.5
2022-07-26T04:54:17.244Z,3.4
2022-07-26T05:09:26.601Z,3.2
2022-07-26T05:24:36.023Z,3.4
2022-07-26T05:39:45.305Z,3.6
2022-07-26T05:54:54.489Z,3.4
2022-07-26T06:10:04.403Z,4
2022-07-26T06:25:12.943Z,4.2
2022-07-26T06:40:22.901Z,4
2022-07-26T06:55:32.401Z,4.4
2022-07-26T07:10:42.631Z,3.9
2022-07-26T07:25:53.842Z,4
2022-07-26T07:41:03.360Z,3.5
2022-07-26T07:56:12.217Z,3.7
2022-07-26T08:11:21.725Z,3.3
2022-07-26T08:26:30.892Z,3.7
2022-07-26T08:41:39.651Z,2.3
2022-07-26T08:56:48.958Z,2
2022-07-26T09:11:57.699Z,2.7
2022-07-26T09:27:07.253Z,2.1
2022-07-26T09:42:29.768Z,2.1
2022-07-26T09:57:39.489Z,2.4
2022-07-26T10:12:48.898Z,2.9
2022-07-26T10:27:58.480Z,1.6
2022-07-26T10:43:40.943Z,2.2
2022-07-26T10:58:52.827Z,1.1
2022-07-26T11:14:02.759Z,1.2
2022-07-26T11:29:22.712Z,1.4
2022-07-26T11:44:51.094Z,1.8
2022-07-26T12:00:01.357Z,1.7
2022-07-26T12:15:11.473Z,2
2022-07-26T12:30:20.879Z,1.5
2022-07-26T12:45:29.948Z,1.7
2022-07-26T13:00:40.862Z,1.5
2022-07-26T13:15:50.275Z,1.6
2022-07-26T13:31:00.093Z,1.3
2022-07-26T13:46:10.565Z,1.7
2022-07-26T14:01:45.126Z,1.5
2022-07-26T14:16:58.051Z,1.6
2022-07-26T14:32:08.013Z,1.5
2022-07-26T14:47:18.154Z,1.5
2022-07-26T15:02:27.661Z,1.8
2022-07-26T15:17:39.361Z,1.6
2022-07-26T15:32:49.128Z,2.3
2022-07-26T15:48:17.152Z,1.8
2022-07-26T16:03:32.839Z,2.1
2022-07-26T16:18:43.297Z,1.7
2022-07-26T16:33:52.569Z,2.5
2022-07-26T16:49:05.269Z,2.3
2022-07-26T17:04:14.963Z,2.2
2022-07-26T17:19:23.774Z,2.5
2022-07-26T17:34:33.053Z,2.1
2022-07-26T17:49:42.108Z,2.2
2022-07-26T18:04:51.563Z,2.1
2022-07-26T18:20:01.058Z,2.3
2022-07-26T18:35:10.432Z,2.2
2022-07-26T18:50:22.437Z,1.9
2022-07-26T19:05:35.755Z,1.8
2022-07-26T19:20:46.300Z,2
2022-07-26T19:35:56.512Z,1.8
2022-07-26T19:51:05.599Z,1.8
2022-07-26T20:06:15.085Z,2.1
2022-07-26T20:21:24.521Z,1.7
2022-07-26T20:36:33.633Z,1.8
2022-07-26T20:51:42.618Z,2.2
2022-07-26T21:06:52.725Z,1.9
2022-07-26T21:22:02.128Z,2
2022-07-26T21:37:11.252Z,2
2022-07-26T21:52:20.784Z,2.2
2022-07-26T22:07:30.234Z,2.7
2022-07-26T22:22:39.458Z,2.1
2022-07-26T22:37:50.644Z,2.2
2022-07-26T22:53:00.777Z,2.6
2022-07-26T23:08:47.288Z,1.7
2022-07-26T23:24:01.450Z,2.3
2022-07-26T23:39:14.698Z,1.7
2022-07-26T23:54:24.210Z,2.3
